Time;durP1;ratioP1;P1;durP2;ratioP2;P2;SDS_P1;SDS_P2;PMS_P1;PMS_P2;Temp;Humidity;BMP_temperature;BMP_pressure;BME280_temperature;BME280_humidity;BME280_pressure;Samples;Min_cycle;Max_cycle;Signal;HPM_P1;HPM_P2
2021/01/12 00:02:21;;;;;;;27.05;15.30;;;6.60;96.70;;;6.10;84.37;99932.94;4999036;28;20137;-86
2021/01/12 00:04:49;;;;;;;36.10;17.63;;;6.60;96.60;;;6.04;84.18;99934.47;4999087;28;20070;-86
2021/01/12 00:07:20;;;;;;;26.58;16.52;;;6.60;96.90;;;6.04;84.88;99923.66;4997742;28;20046;-86
2021/01/12 00:09:47;;;;;;;30.85;16.73;;;6.60;96.90;;;6.10;84.37;99922.13;4998681;28;20059;-86
2021/01/12 00:12:14;;;;;;;33.67;17.58;;;6.60;96.80;;;6.08;84.42;99911.50;4998755;28;20446;-86
2021/01/12 00:14:40;;;;;;;26.55;17.23;;;6.60;97.00;;;6.11;84.34;99907.59;4981233;28;20478;-85
2021/01/12 00:17:08;;;;;;;29.25;17.02;;;6.60;97.00;;;6.13;84.73;99890.22;4998184;28;20077;-86
2021/01/12 00:19:36;;;;;;;28.48;17.48;;;6.60;97.00;;;6.12;84.51;99888.53;4998323;28;20144;-86
2021/01/12 00:22:07;;;;;;;32.05;17.60;;;6.70;97.10;;;6.16;84.00;99889.03;4997636;28;20062;-87
2021/01/12 00:24:35;;;;;;;25.55;15.95;;;6.60;96.80;;;6.17;84.44;99885.28;4998030;28;20487;-86
2021/01/12 00:27:02;;;;;;;29.05;15.95;;;6.70;97.10;;;6.14;84.07;99886.50;4997926;28;20121;-86
2021/01/12 00:29:29;;;;;;;27.63;16.33;;;6.70;96.90;;;6.18;84.46;99879.72;4997629;28;20192;-86
2021/01/12 00:31:56;;;;;;;26.63;15.93;;;6.70;97.00;;;6.16;84.64;99876.34;4998068;28;20093;-86
2021/01/12 00:34:23;;;;;;;29.08;16.55;;;6.70;96.90;;;6.19;84.30;99873.31;4998299;28;20051;-86
2021/01/12 00:36:51;;;;;;;25.50;15.43;;;6.70;97.00;;;6.12;85.10;99869.59;4997215;28;20505;-86
2021/01/12 00:39:19;;;;;;;24.45;15.95;;;6.70;97.40;;;6.13;84.67;99863.22;4998132;28;20129;-86
2021/01/12 00:41:48;;;;;;;26.48;15.35;;;6.90;97.10;;;6.17;85.03;99853.75;4992182;28;20046;-86
2021/01/12 00:44:15;;;;;;;24.83;15.00;;;6.70;96.90;;;6.15;84.92;99853.06;4987606;28;20094;-86
2021/01/12 00:46:44;;;;;;;24.88;15.20;;;6.70;97.00;;;6.16;84.97;99846.63;4998507;28;20062;-85
2021/01/12 00:49:12;;;;;;;25.55;14.93;;;6.80;97.10;;;6.20;85.02;99847.97;4997970;28;20471;-86
2021/01/12 00:51:40;;;;;;;29.13;15.52;;;6.80;97.10;;;6.21;84.54;99841.56;4997816;28;20050;-86
2021/01/12 00:54:08;;;;;;;27.30;15.52;;;6.70;97.10;;;6.23;84.95;99847.63;4997753;28;20529;-86
2021/01/12 00:56:35;;;;;;;26.42;15.68;;;6.70;97.30;;;6.21;84.98;99841.56;4996875;28;20554;-86
2021/01/12 00:59:03;;;;;;;28.05;15.63;;;6.80;97.20;;;6.29;84.43;99829.06;4979581;28;20081;-86
2021/01/12 01:01:30;;;;;;;25.02;15.05;;;6.80;97.30;;;6.31;84.58;99821.63;4997105;28;20053;-86
2021/01/12 01:03:58;;;;;;;25.75;14.70;;;6.80;97.10;;;6.23;85.31;99826.03;4997431;28;20070;-86
2021/01/12 01:06:25;;;;;;;24.80;14.48;;;6.80;97.40;;;6.17;85.26;99821.31;4996812;28;20499;-86
2021/01/12 01:08:52;;;;;;;24.48;14.30;;;6.80;97.60;;;6.17;85.53;99815.03;4997223;28;20057;-86
2021/01/12 01:11:20;;;;;;;23.67;14.45;;;6.90;97.50;;;6.22;85.52;99812.69;4996837;28;20070;-86
2021/01/12 01:13:47;;;;;;;25.65;14.43;;;6.80;97.30;;;6.29;85.26;99796.63;4997318;28;20502;-86
2021/01/12 01:16:15;;;;;;;25.42;14.02;;;6.80;97.20;;;6.30;85.18;99804.53;4996951;28;20859;-86
2021/01/12 01:18:42;;;;;;;27.98;15.23;;;6.90;97.50;;;6.28;85.34;99795.75;4996345;28;20102;-86
2021/01/12 01:21:12;;;;;;;25.05;13.60;;;6.80;97.50;;;6.25;85.46;99783.44;4979007;28;20475;-86
2021/01/12 01:23:39;;;;;;;25.95;14.23;;;6.90;97.50;;;6.25;85.45;99785.31;4998150;28;20682;-86
2021/01/12 01:26:05;;;;;;;23.02;13.65;;;6.90;97.50;;;6.30;85.17;99787.50;4996796;28;20081;-86
2021/01/12 01:28:33;;;;;;;24.45;13.88;;;6.90;97.40;;;6.32;85.23;99782.75;4997408;28;20073;-86
2021/01/12 01:30:59;;;;;;;23.90;13.68;;;6.90;97.60;;;6.34;85.43;99772.59;4979423;28;20070;-86
2021/01/12 01:33:27;;;;;;;22.58;13.57;;;6.90;97.60;;;6.38;85.12;99776.66;4979445;28;20142;-86
2021/01/12 01:35:53;;;;;;;24.88;12.98;;;6.80;97.50;;;6.34;85.07;99761.78;4996134;28;20058;-86
2021/01/12 01:38:20;;;;;;;20.95;13.30;;;6.90;97.50;;;6.36;84.82;99771.44;4979230;28;20050;-86
2021/01/12 01:40:47;;;;;;;20.65;12.48;;;6.90;97.50;;;6.32;85.69;99769.25;4978666;28;20050;-86
2021/01/12 01:43:21;;;;;;;18.90;11.45;;;6.90;98.00;;;6.29;86.00;99770.44;4979544;28;20166;-86
2021/01/12 01:45:48;;;;;;;21.35;12.40;;;6.90;97.80;;;6.33;85.97;99760.13;4996234;28;20394;-86
2021/01/12 01:48:15;;;;;;;19.55;11.85;;;7.10;98.10;;;6.34;85.51;99756.38;4984282;28;20482;-86
2021/01/12 01:50:43;;;;;;;20.83;11.55;;;7.00;98.00;;;6.41;85.64;99754.66;4991114;28;20053;-86
2021/01/12 01:53:10;;;;;;;22.30;12.43;;;6.90;97.90;;;6.43;85.40;99758.03;4996091;28;20074;-86
2021/01/12 01:55:40;;;;;;;19.80;11.73;;;6.90;98.20;;;6.32;86.02;99747.63;4995950;28;20054;-86
2021/01/12 01:58:08;;;;;;;17.63;11.25;;;6.90;98.10;;;6.36;85.71;99743.53;4995107;28;20085;-86
2021/01/12 02:00:36;;;;;;;18.58;11.93;;;7.10;98.00;;;6.44;85.01;99740.81;4996011;28;20100;-86
2021/01/12 02:03:14;;;;;;;19.52;10.85;;;6.90;98.10;;;6.41;85.42;99724.94;4996592;28;20470;-86
2021/01/12 02:05:49;;;;;;;17.98;11.13;;;6.90;98.10;;;6.39;85.73;99724.28;4996982;28;20092;-86
2021/01/12 02:08:23;;;;;;;17.15;10.73;;;6.90;98.10;;;6.34;85.91;99713.16;4979079;28;20137;-86
2021/01/12 02:10:54;;;;;;;17.73;11.27;;;7.00;98.30;;;6.32;86.35;99721.47;4996766;28;20078;-86
2021/01/12 02:13:24;;;;;;;;;;;7.00;97.90;;;6.33;86.28;99700.69;4997243;28;20077;-86
2021/01/12 02:15:54;;;;;;;14.73;9.65;;;7.00;98.30;;;6.37;86.43;99702.00;4996385;28;20330;-86
2021/01/12 02:18:21;;;;;;;15.68;10.45;;;7.00;98.10;;;6.41;85.54;99696.03;4997080;28;20089;-86
2021/01/12 02:20:50;;;;;;;17.42;10.05;;;7.00;98.00;;;6.42;85.52;99699.63;4978958;28;20045;-86
2021/01/12 02:23:27;;;;;;;14.48;9.07;;;7.20;98.10;;;6.37;85.87;99696.59;4996151;28;20070;-86
2021/01/12 02:25:55;;;;;;;15.98;10.02;;;7.00;98.00;;;6.36;86.68;99690.34;4978432;28;20070;-86
2021/01/12 02:28:22;;;;;;;15.68;9.77;;;7.00;98.10;;;6.38;86.09;99671.25;4996465;28;20062;-86
2021/01/12 02:30:50;;;;;;;14.45;9.30;;;7.00;98.10;;;6.40;86.29;99685.44;4978842;28;20144;-86
2021/01/12 02:33:17;;;;;;;18.73;9.82;;;7.10;98.10;;;6.38;86.05;99665.88;4997165;28;20077;-86
2021/01/12 02:35:50;;;;;;;18.00;10.25;;;7.10;98.00;;;6.43;86.33;99668.84;4978425;28;20046;-86
2021/01/12 02:38:19;;;;;;;13.90;9.43;;;7.10;97.90;;;6.48;85.32;99655.66;4979499;28;20081;-86
2021/01/12 02:40:46;;;;;;;16.65;10.13;;;7.10;98.00;;;6.48;85.82;99655.66;4996881;28;20073;-86
2021/01/12 02:43:14;;;;;;;14.68;10.07;;;7.10;98.10;;;6.48;85.82;99642.13;4979227;28;20145;-86
2021/01/12 02:45:41;;;;;;;14.98;9.43;;;7.00;97.90;;;6.48;86.32;99650.25;4996391;28;20058;-86
2021/01/12 02:48:08;;;;;;;16.13;9.88;;;7.10;98.00;;;6.50;85.75;99633.84;4996986;28;20082;-86
2021/01/12 02:50:35;;;;;;;17.02;10.30;;;7.10;97.80;;;6.49;85.82;99627.59;4996305;28;20153;-86
2021/01/12 02:53:02;;;;;;;14.73;9.50;;;7.10;97.90;;;6.52;86.02;99635.34;4978482;28;20486;-86
2021/01/12 02:55:28;;;;;;;14.38;9.82;;;7.00;97.80;;;6.54;85.86;99622.47;4995659;28;20080;-86
2021/01/12 02:57:55;;;;;;;14.80;9.85;;;7.00;97.80;;;6.51;85.38;99617.47;4996029;28;20065;-86
2021/01/12 03:00:24;;;;;;;15.07;9.02;;;7.00;97.90;;;6.54;85.17;99610.84;4996230;28;20515;-86
2021/01/12 03:02:50;;;;;;;14.05;8.73;;;7.00;97.90;;;6.47;85.73;99608.00;4978169;28;20200;-86
2021/01/12 03:05:17;;;;;;;14.93;9.20;;;7.10;98.20;;;6.38;86.23;99603.72;4996554;28;20054;-86
2021/01/12 03:07:44;;;;;;;14.05;8.90;;;7.00;98.00;;;6.43;86.08;99601.28;4995957;28;20074;-86
2021/01/12 03:10:12;;;;;;;13.02;8.63;;;7.00;97.90;;;6.45;85.87;99591.13;4978744;28;20121;-86
2021/01/12 03:12:41;;;;;;;12.68;7.95;;;7.00;97.90;;;6.44;86.06;99586.75;4997423;28;20050;-86
2021/01/12 03:15:10;;;;;;;12.55;8.35;;;7.00;98.20;;;6.41;86.39;99581.69;4999552;28;20121;-86
2021/01/12 03:17:38;;;;;;;12.57;7.85;;;7.00;98.10;;;6.39;86.61;99581.03;4999361;28;20057;-86
2021/01/12 03:20:06;;;;;;;15.25;8.57;;;7.00;98.20;;;6.45;86.41;99574.91;4999283;28;20046;-86
2021/01/12 03:22:33;;;;;;;12.52;7.65;;;7.00;98.10;;;6.44;86.44;99560.56;4998704;28;20137;-87
2021/01/12 03:25:00;;;;;;;12.43;7.72;;;7.10;98.20;;;6.48;85.84;99552.94;4999800;28;20158;-86
2021/01/12 03:27:26;;;;;;;10.55;6.88;;;7.10;98.10;;;6.48;86.53;99566.44;4999404;28;20062;-86
2021/01/12 03:29:53;;;;;;;11.30;7.03;;;7.00;98.40;;;6.50;86.19;99550.88;4998865;28;20038;-86
2021/01/12 03:32:20;;;;;;;10.43;6.40;;;7.10;98.40;;;6.53;85.72;99549.69;4999418;28;20594;-86
2021/01/12 03:34:47;;;;;;;11.25;6.97;;;7.10;98.30;;;6.51;86.75;99549.88;4999102;28;20038;-86
2021/01/12 03:37:14;;;;;;;9.93;6.32;;;7.10;98.30;;;6.52;86.59;99542.59;4998392;28;20073;-85
2021/01/12 03:39:41;;;;;;;13.65;7.55;;;7.10;98.30;;;6.57;86.70;99551.03;4999912;28;20475;-85
2021/01/12 03:42:08;;;;;;;9.32;6.50;;;7.10;98.50;;;6.56;85.86;99538.50;4999152;28;20046;-86
2021/01/12 03:44:34;;;;;;;11.45;6.88;;;7.10;98.40;;;6.61;85.86;99539.66;4999602;28;20101;-87
2021/01/12 03:47:01;;;;;;;10.40;6.57;;;7.20;98.30;;;6.65;85.65;99532.00;4981177;28;20519;-86
2021/01/12 03:49:28;;;;;;;8.93;5.72;;;7.10;98.40;;;6.64;85.96;99530.31;4999079;28;20039;-86
2021/01/12 03:51:55;;;;;;;7.85;5.47;;;7.30;98.70;;;6.61;86.31;99526.13;4981281;28;20195;-86
2021/01/12 03:54:22;;;;;;;8.80;5.72;;;7.10;98.70;;;6.57;86.88;99540.22;4998889;28;20069;-86
2021/01/12 03:56:49;;;;;;;9.75;5.75;;;7.20;98.80;;;6.61;86.91;99530.69;4998810;28;20069;-86
2021/01/12 03:59:16;;;;;;;8.38;5.65;;;7.20;98.60;;;6.61;87.03;99525.28;4998922;28;20042;-86
2021/01/12 04:01:43;;;;;;;8.75;5.63;;;7.20;98.70;;;6.59;86.63;99517.38;4980656;28;20111;-86
2021/01/12 04:04:10;;;;;;;9.07;5.47;;;7.20;98.50;;;6.64;86.47;99514.97;4998856;28;20089;-86
2021/01/12 04:06:37;;;;;;;9.18;5.63;;;7.20;98.50;;;6.68;86.44;99498.34;4997846;28;20046;-86
2021/01/12 04:09:05;;;;;;;8.40;5.00;;;7.20;98.80;;;6.61;86.65;99509.06;4998761;28;20165;-86
2021/01/12 04:11:34;;;;;;;7.53;5.40;;;7.30;98.90;;;6.61;86.97;99504.50;4999221;28;20065;-85
2021/01/12 04:14:01;;;;;;;9.25;5.88;;;7.30;98.80;;;6.68;86.90;99498.34;4998644;28;20050;-86
2021/01/12 04:16:28;;;;;;;9.40;5.03;;;7.30;98.70;;;6.68;86.97;99504.59;4998037;28;20046;-86
2021/01/12 04:18:55;;;;;;;7.15;4.75;;;7.30;98.80;;;6.65;87.25;99489.59;4997856;28;20114;-86
2021/01/12 04:21:22;;;;;;;8.15;4.88;;;7.30;98.90;;;6.69;87.48;99478.41;4998735;28;20053;-86
2021/01/12 04:23:49;;;;;;;7.20;4.63;;;7.30;99.10;;;6.73;87.10;99474.31;4997845;28;20050;-85
2021/01/12 04:26:16;;;;;;;6.97;4.30;;;7.30;98.90;;;6.73;87.39;99474.31;4998302;28;20086;-86
2021/01/12 04:28:43;;;;;;;8.63;5.35;;;7.30;99.00;;;6.73;87.59;99480.56;4998093;28;20061;-86
2021/01/12 04:31:10;;;;;;;7.78;4.90;;;7.40;99.20;;;6.77;86.73;99481.03;4998072;28;20148;-86
2021/01/12 04:33:37;;;;;;;6.78;4.40;;;7.30;99.10;;;6.75;87.94;99483.06;4997744;28;20068;-86
2021/01/12 04:36:06;;;;;;;7.25;4.80;;;7.40;99.40;;;6.66;87.66;99468.78;4998129;28;20758;-86
2021/01/12 04:38:32;;;;;;;8.10;4.38;;;7.40;99.30;;;6.69;88.21;99467.59;4998121;28;20066;-86
2021/01/12 04:40:59;;;;;;;6.47;4.50;;;7.40;99.30;;;6.73;88.19;99468.91;4998308;28;20042;-87
2021/01/12 04:43:27;;;;;;;6.25;4.07;;;7.40;99.30;;;6.75;87.76;99473.09;4980673;28;20553;-86
2021/01/12 04:45:54;;;;;;;8.02;4.10;;;7.40;99.10;;;6.74;88.79;99459.75;4994977;28;20074;-85
2021/01/12 04:48:20;;;;;;;6.68;4.07;;;7.50;99.20;;;6.77;88.64;99462.09;4997820;28;20566;-86
2021/01/12 04:50:47;;;;;;;6.00;3.70;;;7.50;99.20;;;6.79;87.96;99451.94;4980331;28;20085;-86
2021/01/12 04:53:14;;;;;;;6.88;4.28;;;7.50;99.20;;;6.79;88.32;99443.81;4997485;28;20258;-86
2021/01/12 04:55:43;;;;;;;7.57;4.47;;;7.50;98.90;;;6.81;87.89;99447.16;4996226;28;20435;-86
2021/01/12 04:58:10;;;;;;;6.32;4.20;;;7.40;98.80;;;6.80;87.92;99432.81;4997175;28;20034;-86
2021/01/12 05:00:39;;;;;;;6.47;3.95;;;7.50;99.40;;;6.82;88.26;99429.94;4979467;28;20089;-86
2021/01/12 05:03:08;;;;;;;7.78;3.92;;;7.50;99.20;;;6.83;88.32;99410.81;4997350;28;20073;-86
2021/01/12 05:05:36;;;;;;;6.47;3.65;;;7.50;99.40;;;6.85;88.16;99429.53;4996655;28;20132;-86
2021/01/12 05:08:06;;;;;;;5.03;3.30;;;7.50;99.30;;;6.89;87.97;99422.72;4997496;28;20079;-86
2021/01/12 05:10:37;;;;;;;7.25;3.92;;;7.50;99.20;;;6.90;88.01;99419.00;4979509;28;20446;-86
2021/01/12 05:13:06;;;;;;;5.78;3.70;;;7.50;99.40;;;6.89;87.58;99417.31;4997388;28;20074;-86
2021/01/12 05:15:33;;;;;;;5.78;3.65;;;7.60;99.10;;;6.92;87.73;99403.44;4996051;28;20053;-85
2021/01/12 05:18:04;;;;;;;6.22;3.78;;;7.60;99.00;;;6.89;88.43;99403.78;4997452;28;20081;-86
2021/01/12 05:20:37;;;;;;;5.90;3.35;;;7.60;99.30;;;6.93;88.43;99394.31;4996791;28;20039;-86
2021/01/12 05:23:08;;;;;;;4.35;3.00;;;7.60;99.30;;;6.91;88.45;99392.78;4997365;28;20581;-86
2021/01/12 05:25:39;;;;;;;4.85;3.03;;;7.60;99.70;;;6.92;88.78;99403.44;4996988;28;20117;-86
2021/01/12 05:28:08;;;;;;;4.15;2.72;;;7.60;99.10;;;6.92;88.38;99395.31;4996340;28;20128;-86
2021/01/12 05:30:34;;;;;;;4.97;3.13;;;7.60;99.50;;;6.94;88.16;99385.13;4996338;28;20128;-86
2021/01/12 05:33:03;;;;;;;6.07;2.95;;;7.70;99.70;;;6.95;89.03;99384.13;4996230;28;20066;-86
2021/01/12 05:35:31;;;;;;;5.35;2.97;;;7.70;99.40;;;6.94;89.14;99381.59;4995463;28;20480;-86
2021/01/12 05:38:03;;;;;;;4.05;2.80;;;7.70;99.90;;;6.95;88.63;99386.84;4995542;28;20133;-86
2021/01/12 05:40:33;;;;;;;4.25;2.60;;;7.70;99.80;;;6.98;88.17;99374.78;4996047;28;20066;-86
2021/01/12 05:43:11;;;;;;;4.35;2.67;;;7.90;99.60;;;6.98;88.58;99374.78;4996126;28;20129;-86
2021/01/12 05:45:40;;;;;;;5.22;3.05;;;7.70;99.80;;;7.00;88.43;99360.03;4996375;28;20050;-86
2021/01/12 05:48:10;;;;;;;5.13;2.92;;;7.80;99.40;;;7.03;88.61;99346.13;4996661;28;20105;-85
2021/01/12 05:50:39;;;;;;;5.75;3.17;;;7.70;99.40;;;6.99;88.67;99338.59;4978599;28;20047;-86
2021/01/12 05:53:13;;;;;;;4.63;2.85;;;7.80;99.80;;;7.00;88.95;99332.97;4996230;28;20057;-86
2021/01/12 05:55:42;;;;;;;5.10;2.92;;;7.80;99.40;;;7.00;89.72;99354.63;4995821;28;20384;-86
2021/01/12 05:58:17;;;;;;;4.57;2.92;;;7.80;99.90;;;6.90;89.84;99356.81;4996129;28;20105;-86
2021/01/12 06:00:47;;;;;;;6.50;3.13;;;7.80;99.90;;;6.97;89.86;99349.63;4995724;28;20042;-86
2021/01/12 06:03:17;;;;;;;4.63;2.92;;;7.80;99.90;;;6.97;90.27;99351.50;4995032;28;20046;-86
2021/01/12 06:05:46;;;;;;;4.22;2.70;;;7.80;99.90;;;7.00;89.73;99334.84;4996080;28;20050;-85
2021/01/12 06:08:15;;;;;;;4.85;3.05;;;7.80;99.80;;;7.07;88.84;99329.53;4997175;28;20042;-85
2021/01/12 06:10:45;;;;;;;4.20;2.78;;;7.80;99.70;;;7.08;89.13;99331.19;4994711;28;20065;-84
2021/01/12 06:13:16;;;;;;;5.90;3.22;;;7.80;99.90;;;7.07;89.25;99324.13;4994323;28;20046;-85
2021/01/12 06:15:45;;;;;;;5.28;2.85;;;7.80;99.60;;;7.07;89.23;99329.53;4992916;28;20070;-84
2021/01/12 06:18:17;;;;;;;6.50;2.70;;;7.90;99.90;;;7.09;89.52;99322.06;4993565;28;20073;-86
2021/01/12 06:21:13;;;;;;;4.90;2.47;;;7.90;99.90;;;7.10;89.57;99323.72;4993752;28;20075;-85
2021/01/12 06:23:49;;;;;;;4.10;2.47;;;7.90;99.60;;;7.08;89.08;99320.38;4994130;28;20040;-85
2021/01/12 06:26:16;;;;;;;4.78;2.75;;;7.90;99.70;;;7.14;89.49;99325.88;4993492;28;20077;-84
2021/01/12 06:28:43;;;;;;;4.05;2.40;;;7.90;99.90;;;7.07;90.02;99319.53;4992451;28;20042;-86
2021/01/12 06:31:11;;;;;;;5.57;2.60;;;7.90;99.90;;;7.11;90.00;99317.31;4993360;28;20121;-86
2021/01/12 06:33:38;;;;;;;4.88;2.80;;;7.90;99.80;;;7.11;89.66;99318.13;4975811;28;20050;-85
2021/01/12 06:36:08;;;;;;;4.75;2.35;;;7.90;99.50;;;7.11;89.87;99320.00;4992859;28;20043;-86
2021/01/12 06:38:38;;;;;;;3.78;2.17;;;8.00;99.90;;;7.16;89.55;99317.53;4975774;28;20517;-85
2021/01/12 06:41:08;;;;;;;4.50;1.92;;;7.90;99.80;;;7.19;90.05;99322.56;4993763;28;20137;-85
2021/01/12 06:43:36;;;;;;;4.15;2.35;;;8.00;99.80;;;7.14;90.29;99323.16;4993131;28;20054;-84
2021/01/12 06:46:04;;;;;;;3.60;2.17;;;8.00;99.90;;;7.15;90.25;99321.28;4992885;28;20126;-85
2021/01/12 06:48:41;;;;;;;4.30;1.98;;;8.00;99.80;;;7.13;90.71;99329.59;4994986;28;20080;-82
2021/01/12 06:51:09;;;;;;;3.50;1.98;;;8.00;99.90;;;7.15;89.75;99327.53;4997693;28;20129;-82
2021/01/12 06:53:36;;;;;;;3.95;2.30;;;8.00;99.50;;;7.20;89.19;99329.69;4982664;28;20047;-82
2021/01/12 06:56:06;;;;;;;4.07;2.42;;;8.00;99.20;;;7.23;89.67;99323.88;4978352;28;20900;-84
2021/01/12 06:58:33;;;;;;;4.43;2.20;;;8.00;99.10;;;7.27;89.70;99321.63;4993885;28;20138;-84
2021/01/12 07:01:01;;;;;;;3.97;2.28;;;8.00;99.20;;;7.26;89.71;99319.97;4981042;28;20085;-84
2021/01/12 07:03:32;;;;;;;5.30;2.30;;;8.00;99.30;;;7.29;88.79;99320.41;4979759;28;20058;-83
2021/01/12 07:06:03;;;;;;;3.85;2.13;;;8.00;99.20;;;7.26;89.17;99307.25;4997414;28;20097;-84
2021/01/12 07:08:31;;;;;;;;;;;8.10;99.40;;;7.27;89.29;99295.38;4997908;28;20420;-83
2021/01/12 07:11:03;;;;;;;3.97;2.00;;;8.10;99.30;;;7.29;89.03;99306.88;4998247;28;19967;-84
2021/01/12 07:13:37;;;;;;;4.60;2.60;;;8.10;99.20;;;7.29;89.18;99306.88;4998072;28;20054;-84
2021/01/12 07:16:14;;;;;;;3.40;2.15;;;8.10;99.60;;;7.31;89.42;99310.22;4978060;28;20050;-85
2021/01/12 07:18:44;;;;;;;4.28;2.28;;;8.10;99.80;;;7.34;89.22;99309.00;4996086;28;20038;-83
2021/01/12 07:21:13;;;;;;;3.90;2.42;;;8.00;99.10;;;7.35;89.37;99295.28;4995955;28;20061;-83
2021/01/12 07:23:42;;;;;;;4.35;2.15;;;8.10;99.30;;;7.36;89.39;99302.34;4994018;28;20388;-83
2021/01/12 07:26:10;;;;;;;4.60;2.15;;;8.10;99.70;;;7.35;89.08;99305.25;4997497;28;20102;-83
2021/01/12 07:28:46;;;;;;;4.32;2.30;;;8.10;99.10;;;7.35;89.51;99297.97;4996398;28;20042;-83
2021/01/12 07:31:12;;;;;;;4.35;2.42;;;8.10;99.80;;;7.34;89.75;99293.59;4997707;28;20589;-83
2021/01/12 07:33:41;;;;;;;5.57;2.75;;;8.10;99.30;;;7.34;89.79;99288.19;4996683;28;20042;-83
2021/01/12 07:36:09;;;;;;;4.60;2.60;;;8.10;99.40;;;7.34;89.52;99288.19;4996610;28;20469;-83
2021/01/12 07:38:36;;;;;;;5.32;3.00;;;8.10;99.20;;;7.35;89.51;99297.13;4996240;28;20062;-83
2021/01/12 07:41:04;;;;;;;4.55;2.75;;;8.10;99.30;;;7.37;89.46;99301.34;4996704;28;20066;-83
2021/01/12 07:43:32;;;;;;;6.07;3.05;;;8.10;99.40;;;7.38;89.28;99281.34;4996895;28;20038;-83
2021/01/12 07:46:01;;;;;;;5.90;3.08;;;8.10;99.50;;;7.40;89.66;99291.97;4996533;28;20410;-86
2021/01/12 07:48:29;;;;;;;5.18;3.30;;;8.20;99.70;;;7.37;89.72;99293.22;4995766;28;20050;-83
2021/01/12 07:51:02;;;;;;;6.40;3.28;;;8.20;99.90;;;7.37;89.69;99287.81;4996551;28;20042;-83
2021/01/12 07:53:31;;;;;;;6.03;3.00;;;8.20;99.60;;;7.40;90.19;99284.69;4996721;28;20499;-83
2021/01/12 07:55:59;;;;;;;5.22;3.30;;;8.20;99.60;;;7.43;90.15;99275.34;4995421;28;20050;-84
2021/01/12 07:58:28;;;;;;;6.22;3.38;;;8.20;99.60;;;7.41;90.09;99283.66;4996410;28;20085;-85
2021/01/12 08:00:55;;;;;;;6.80;3.13;;;8.20;99.90;;;7.46;89.88;99293.06;4978331;28;20058;-84
2021/01/12 08:03:27;;;;;;;5.55;3.70;;;8.20;99.90;;;7.47;89.95;99294.75;4996825;28;20043;-84
2021/01/12 08:06:00;;;;;;;6.53;3.25;;;8.20;99.90;;;7.47;89.92;99286.63;4997015;28;20122;-83
2021/01/12 08:08:27;;;;;;;7.15;3.90;;;8.20;99.40;;;7.46;90.03;99287.66;4997424;28;20495;-84
2021/01/12 08:10:54;;;;;;;9.55;4.22;;;8.20;99.90;;;7.47;90.00;99292.06;4997027;28;20046;-84
2021/01/12 08:13:23;;;;;;;6.68;3.50;;;8.30;99.50;;;7.48;90.22;99293.72;4995808;28;20676;-83
2021/01/12 08:15:51;;;;;;;6.50;4.10;;;8.30;99.50;;;7.48;90.68;99310.78;4996733;28;20050;-84
2021/01/12 08:18:20;;;;;;;8.70;4.53;;;8.30;99.90;;;7.47;90.87;99303.72;4996545;28;20778;-83
2021/01/12 08:20:53;;;;;;;9.70;4.15;;;8.30;99.90;;;7.48;91.24;99313.47;4996515;28;20034;-86
2021/01/12 08:23:20;;;;;;;8.40;4.18;;;8.40;99.90;;;7.49;90.87;99325.19;4996671;28;20117;-83
2021/01/12 08:25:48;;;;;;;5.68;3.97;;;8.40;99.90;;;7.48;91.33;99334.31;4995369;28;20042;-83
2021/01/12 08:28:15;;;;;;;6.82;4.70;;;8.40;99.90;;;7.49;91.83;99333.28;4995835;28;20058;-83
2021/01/12 08:30:42;;;;;;;5.93;4.15;;;8.40;99.90;;;7.49;92.01;99336.00;4997143;28;20046;-84
2021/01/12 08:33:15;;;;;;;8.77;4.47;;;8.40;99.90;;;7.52;91.29;99338.31;4996820;28;20050;-82
2021/01/12 08:35:58;;;;;;;8.13;4.80;;;8.40;99.90;;;7.53;92.06;99340.00;4995327;28;20038;-83
2021/01/12 08:38:27;;;;;;;8.52;5.00;;;8.40;99.90;;;7.54;91.24;99349.78;4995802;28;20517;-82
2021/01/12 08:40:56;;;;;;;7.72;4.95;;;8.40;99.90;;;7.55;91.87;99349.59;4995398;28;20046;-82
2021/01/12 08:43:30;;;;;;;5.43;3.83;;;8.50;99.90;;;7.59;91.37;99350.03;4978843;28;20046;-82
2021/01/12 08:45:59;;;;;;;6.63;3.80;;;8.40;99.90;;;7.59;91.12;99340.03;4994957;28;20038;-83
2021/01/12 08:48:27;;;;;;;6.40;4.00;;;8.50;99.90;;;7.62;91.44;99339.66;4994449;28;20065;-82
2021/01/12 08:50:54;;;;;;;5.85;3.58;;;8.50;99.90;;;7.63;91.02;99352.19;4977485;28;20466;-82
2021/01/12 08:53:28;;;;;;;5.18;3.50;;;8.50;99.90;;;7.63;91.57;99351.31;4993819;28;20050;-82
2021/01/12 08:56:05;;;;;;;5.82;3.70;;;8.60;99.90;;;7.63;91.76;99354.03;4976262;28;20054;-82
2021/01/12 08:58:31;;;;;;;6.50;3.28;;;8.60;99.90;;;7.63;91.49;99345.91;4978751;28;20053;-83
2021/01/12 09:01:00;;;;;;;7.28;3.15;;;8.50;99.90;;;7.62;92.47;99353.19;4985339;28;20062;-83
2021/01/12 09:03:30;;;;;;;9.75;3.28;;;8.60;99.90;;;7.63;91.55;99360.31;4986770;28;20047;-83
2021/01/12 09:05:57;;;;;;;8.45;3.35;;;8.60;99.70;;;7.64;92.27;99361.13;4994900;28;20108;-82
2021/01/12 09:08:27;;;;;;;7.55;3.55;;;8.60;99.90;;;7.68;91.39;99365.13;4995694;28;20050;-83
2021/01/12 09:10:54;;;;;;;8.32;3.90;;;8.60;99.70;;;7.66;91.67;99369.91;4995134;28;20038;-82
2021/01/12 09:13:27;;;;;;;6.05;3.47;;;8.60;99.90;;;7.72;91.38;99384.53;5006372;28;20172;-83
2021/01/12 09:15:55;;;;;;;7.15;4.18;;;8.60;99.90;;;7.73;91.42;99375.38;4997960;28;20038;-82
2021/01/12 09:18:30;;;;;;;10.10;5.55;;;8.60;99.90;;;7.75;91.35;99390.41;5005924;28;20402;-82
2021/01/12 09:20:59;;;;;;;11.52;5.38;;;8.60;99.90;;;7.73;91.69;99392.47;4995027;28;20121;-82
2021/01/12 09:23:27;;;;;;;10.20;5.60;;;8.60;99.90;;;7.75;91.13;99397.66;5005046;28;20096;-81
2021/01/12 09:25:58;;;;;;;8.35;5.75;;;8.60;99.90;;;7.72;91.55;99393.50;5000455;28;20052;-82
2021/01/12 09:28:26;;;;;;;8.30;5.15;;;8.60;99.90;;;7.71;91.76;99399.09;5014327;28;20052;-82
2021/01/12 09:31:06;;;;;;;10.10;5.38;;;8.60;99.90;;;7.75;91.79;99403.94;4995871;28;20458;-81
2021/01/12 09:33:35;;;;;;;8.02;5.05;;;8.60;99.90;;;7.79;90.56;99405.22;4959667;28;20415;-82
2021/01/12 09:36:07;;;;;;;9.18;5.18;;;8.60;99.70;;;7.81;90.57;99403.16;5006292;28;20117;-81
2021/01/12 09:38:39;;;;;;;11.82;5.22;;;8.70;99.70;;;7.84;90.29;99412.75;5014777;28;20541;-82
2021/01/12 09:41:06;;;;;;;17.33;6.75;;;8.70;99.60;;;7.87;90.08;99411.56;4999223;28;20096;-83
2021/01/12 09:43:39;;;;;;;11.07;6.25;;;8.70;99.90;;;7.82;90.42;99410.28;4994680;28;20046;-83
2021/01/12 09:46:19;;;;;;;12.13;6.30;;;8.70;99.90;;;7.85;90.69;99427.16;4995300;28;20065;-83
2021/01/12 09:48:51;;;;;;;9.90;5.57;;;8.70;99.90;;;7.83;90.74;99427.34;4994874;28;20152;-83
2021/01/12 09:51:18;;;;;;;12.88;6.07;;;8.70;99.80;;;7.87;90.84;99427.81;4994232;28;20054;-83
2021/01/12 09:53:49;;;;;;;8.70;4.72;;;8.70;99.80;;;7.84;90.55;99439.84;4996161;28;20061;-83
2021/01/12 09:56:20;;;;;;;9.63;4.47;;;8.70;99.90;;;7.84;90.35;99439.84;4993956;28;20525;-83
2021/01/12 09:58:49;;;;;;;8.50;3.92;;;8.70;99.70;;;7.90;90.33;99444.50;4980814;28;20057;-83
2021/01/12 10:01:16;;;;;;;8.27;3.47;;;8.70;99.40;;;7.90;89.61;99449.06;4982707;28;20057;-83
2021/01/12 10:03:42;;;;;;;7.28;3.50;;;8.70;99.20;;;7.87;89.33;99450.31;4994696;28;20050;-83
2021/01/12 10:06:17;;;;;;;8.85;3.88;;;8.90;99.40;;;7.89;90.07;99453.66;4993867;28;20523;-83
2021/01/12 10:08:46;;;;;;;6.15;3.05;;;8.70;98.90;;;7.90;89.08;99458.06;4994355;28;20157;-83
2021/01/12 10:11:14;;;;;;;6.80;3.20;;;8.70;99.20;;;7.91;89.87;99461.59;4995060;28;20065;-83
2021/01/12 10:13:44;;;;;;;6.85;3.30;;;8.70;99.00;;;7.90;90.05;99470.75;4981253;28;20092;-83
2021/01/12 10:16:11;;;;;;;8.50;3.78;;;8.70;99.30;;;7.90;89.17;99473.44;4980949;28;20050;-83
2021/01/12 10:18:38;;;;;;;10.93;3.53;;;8.70;99.00;;;7.85;89.17;99470.50;4979873;28;20042;-83
2021/01/12 10:21:05;;;;;;;7.40;3.53;;;8.70;99.00;;;7.87;89.22;99474.69;5001052;28;20096;-83
2021/01/12 10:23:33;;;;;;;13.63;3.58;;;8.70;99.20;;;7.90;89.43;99479.72;5005810;28;20557;-83
2021/01/12 10:26:01;;;;;;;10.38;4.35;;;8.70;99.40;;;7.87;89.47;99468.44;4998090;28;20050;-83
2021/01/12 10:28:27;;;;;;;9.85;3.80;;;8.70;99.50;;;7.88;89.75;99470.97;5014044;28;20042;-83
2021/01/12 10:30:54;;;;;;;10.05;3.80;;;8.70;99.50;;;7.87;89.32;99473.84;4999756;28;20367;-83
2021/01/12 10:33:21;;;;;;;5.75;3.42;;;8.70;99.40;;;7.91;89.50;99483.28;5004231;28;20050;-83
2021/01/12 10:35:48;;;;;;;9.52;3.40;;;8.70;99.40;;;7.90;89.55;99493.28;5009722;28;20421;-83
2021/01/12 10:38:15;;;;;;;8.50;3.72;;;8.70;99.40;;;7.90;89.38;99484.28;5001315;28;20050;-83